Terminal Aerodrome Forecast
Issued by NWS Jackson, KY

Home | Current Version | Previous Version | Text Only | Print | Product List | Glossary On
Versions: 1 2 3 4 5 6 7 8 9 10 11 12 13 14 15 16 17
000
FTUS43 KJKL 032331
TAFLOZ
TAF
KLOZ 032331Z 0400/0424 VRB03KT P6SM FEW100
     FM040700 00000KT 5SM BR SKC
     FM041000 00000KT 1SM BR BKN002
     FM041330 VRB03KT P6SM FEW035=

USA.gov is the U.S. government's official web portal to all federal, state and local government web resources and services.